createdAt,value
2023-04-09T00:02:10.424Z,99478.34
2023-04-09T00:07:12.519Z,99473.27
2023-04-09T00:12:14.392Z,99458.09
2023-04-09T00:17:17.102Z,99431.30
2023-04-09T00:22:19.096Z,99430.45
2023-04-09T00:27:21.281Z,99435.52
2023-04-09T00:32:23.147Z,99435.09
2023-04-09T00:37:25.592Z,99435.44
2023-04-09T00:42:27.604Z,99440.00
2023-04-09T00:47:31.351Z,99437.83
2023-04-09T00:52:34.012Z,99436.41
2023-04-09T00:57:36.524Z,99438.95
2023-04-09T01:02:39.167Z,99438.63
2023-04-09T01:08:10.839Z,99440.23
2023-04-09T01:13:23.776Z,99445.21
2023-04-09T01:18:32.640Z,99452.48
2023-04-09T01:24:02.779Z,99451.23
2023-04-09T01:29:18.650Z,99462.50
2023-04-09T01:34:20.842Z,99464.05
2023-04-09T01:39:23.513Z,99466.40
2023-04-09T01:44:27.638Z,99458.73
2023-04-09T01:49:31.127Z,99459.81
2023-04-09T01:54:33.342Z,99460.59
2023-04-09T01:59:35.581Z,99464.92
2023-04-09T02:04:43.627Z,99467.89
2023-04-09T02:09:48.058Z,99465.11
2023-04-09T02:14:53.097Z,99463.48
2023-04-09T02:19:55.441Z,99463.79
2023-04-09T02:24:57.571Z,99464.36
2023-04-09T02:29:59.597Z,99468.41
2023-04-09T02:35:01.659Z,99465.52
2023-04-09T02:40:04.559Z,99461.00
2023-04-09T02:45:07.531Z,99457.98
2023-04-09T02:50:09.783Z,99454.20
2023-04-09T02:55:15.458Z,99453.41
2023-04-09T03:00:17.714Z,99453.37
2023-04-09T03:05:19.593Z,99455.86
2023-04-09T03:10:21.702Z,99457.74
2023-04-09T03:15:23.602Z,99456.70
2023-04-09T03:20:26.020Z,99458.71
2023-04-09T03:25:28.502Z,99458.66
2023-04-09T03:30:31.557Z,99458.36
2023-04-09T03:35:34.992Z,99460.84
2023-04-09T03:40:38.868Z,99460.73
2023-04-09T03:45:40.745Z,99458.36
2023-04-09T03:50:54.400Z,99459.52
2023-04-09T03:56:03.611Z,99459.54
2023-04-09T04:01:06.979Z,99462.77
2023-04-09T04:06:18.407Z,99460.56
2023-04-09T04:11:46.713Z,99454.60
2023-04-09T04:16:49.132Z,99457.56
2023-04-09T04:21:53.591Z,99455.71
2023-04-09T04:26:56.834Z,99458.45
2023-04-09T04:32:01.055Z,99457.98
2023-04-09T04:37:07.619Z,99467.90
2023-04-09T04:42:09.714Z,99481.23
2023-04-09T04:47:12.286Z,99484.98
2023-04-09T04:52:16.623Z,99485.56
2023-04-09T04:57:21.329Z,99482.74
2023-04-09T05:02:23.748Z,99480.98
2023-04-09T05:07:48.663Z,99476.90
2023-04-09T05:12:50.964Z,99475.91
2023-04-09T05:18:00.918Z,99472.65
2023-04-09T05:23:04.309Z,99473.22
2023-04-09T05:28:12.529Z,99477.13
2023-04-09T05:33:16.106Z,99480.42
2023-04-09T05:38:18.495Z,99487.15
2023-04-09T05:43:22.415Z,99491.70
2023-04-09T05:48:24.482Z,99492.51
2023-04-09T05:53:30.026Z,99494.13
2023-04-09T05:58:32.508Z,99499.59
2023-04-09T06:03:34.913Z,99504.23
2023-04-09T06:08:37.225Z,99514.31
2023-04-09T06:13:40.293Z,99515.88
2023-04-09T06:18:42.905Z,99520.45
2023-04-09T06:23:44.963Z,99521.98
2023-04-09T06:28:48.053Z,99523.67
2023-04-09T06:33:50.891Z,99528.37
2023-04-09T06:38:53.785Z,99528.42
2023-04-09T06:43:55.952Z,99533.63
2023-04-09T06:48:58.615Z,99537.09
2023-04-09T06:54:03.241Z,99537.30
2023-04-09T06:59:07.242Z,99538.94
2023-04-09T07:04:09.976Z,99543.63
2023-04-09T07:09:12.021Z,99545.41
2023-04-09T07:14:14.255Z,99544.21
2023-04-09T07:19:16.552Z,99548.85
2023-04-09T07:24:19.028Z,99549.96
2023-04-09T07:29:22.561Z,99547.00
2023-04-09T07:34:26.683Z,99550.84
2023-04-09T07:39:29.256Z,99550.42
2023-04-09T07:44:36.732Z,99552.06
2023-04-09T07:49:39.482Z,99550.48
2023-04-09T07:54:42.395Z,99553.46
2023-04-09T07:59:45.010Z,99552.11
2023-04-09T08:04:47.539Z,99555.94
2023-04-09T08:09:49.556Z,99559.84
2023-04-09T08:14:52.169Z,99556.22
2023-04-09T08:19:54.100Z,99552.47
2023-04-09T08:24:59.449Z,99559.77
2023-04-09T08:30:07.056Z,99556.91
2023-04-09T08:35:11.247Z,99561.70
2023-04-09T08:40:13.370Z,99564.73
2023-04-09T08:45:17.370Z,99566.13
2023-04-09T08:50:20.637Z,99564.30
2023-04-09T08:55:23.627Z,99562.66
2023-04-09T09:00:26.405Z,99566.80
2023-04-09T09:05:47.319Z,99572.88
2023-04-09T09:10:50.423Z,99572.66
2023-04-09T09:15:56.574Z,99567.52
2023-04-09T09:21:12.728Z,99573.71
2023-04-09T09:26:17.008Z,99576.60
2023-04-09T09:31:21.972Z,99579.92
2023-04-09T09:36:35.660Z,99581.70
2023-04-09T09:41:39.629Z,99576.00
2023-04-09T09:46:47.195Z,99576.88
2023-04-09T09:51:56.974Z,99575.81
2023-04-09T09:57:04.885Z,99575.23
2023-04-09T10:02:22.348Z,99567.60
2023-04-09T10:07:25.716Z,99567.80
2023-04-09T10:12:32.241Z,99567.45
2023-04-09T10:17:34.393Z,99564.09
2023-04-09T10:22:36.753Z,99568.33
2023-04-09T10:27:39.988Z,99563.35
2023-04-09T10:32:44.142Z,99562.55
2023-04-09T10:37:51.023Z,99557.61
2023-04-09T10:42:57.125Z,99552.27
2023-04-09T10:48:03.247Z,99550.48
2023-04-09T10:53:06.538Z,99551.79
2023-04-09T10:58:13.674Z,99547.83
2023-04-09T11:03:32.653Z,99547.00
2023-04-09T11:08:39.247Z,99545.77
2023-04-09T11:13:42.101Z,99547.52
2023-04-09T11:18:45.100Z,99545.98
2023-04-09T11:23:53.729Z,99541.94
2023-04-09T11:28:58.222Z,99542.42
2023-04-09T11:34:00.879Z,99542.31
2023-04-09T11:39:04.371Z,99540.42
2023-04-09T11:44:08.146Z,99544.48
2023-04-09T11:49:10.630Z,99543.64
2023-04-09T11:54:12.591Z,99538.84
2023-04-09T11:59:15.786Z,99545.92
2023-04-09T12:04:21.661Z,99545.66
2023-04-09T12:09:24.379Z,99540.48
2023-04-09T12:14:29.566Z,99543.56
2023-04-09T12:19:31.918Z,99542.99
2023-04-09T12:24:33.956Z,99541.47
2023-04-09T12:29:36.156Z,99543.16
2023-04-09T12:34:38.679Z,99542.06
2023-04-09T12:39:41.244Z,99535.70
2023-04-09T12:44:43.017Z,99535.35
2023-04-09T12:49:46.944Z,99530.64
2023-04-09T12:54:49.096Z,99526.23
2023-04-09T13:00:18.646Z,99522.03
2023-04-09T13:05:21.785Z,99516.49
2023-04-09T13:10:29.723Z,99520.14
2023-04-09T13:15:31.736Z,99520.59
2023-04-09T13:20:33.771Z,99515.52
2023-04-09T13:25:35.728Z,99515.20
2023-04-09T13:30:37.825Z,99513.23
2023-04-09T13:35:40.937Z,99508.05
2023-04-09T13:40:43.954Z,99504.83
2023-04-09T13:45:46.308Z,99505.54
2023-04-09T13:50:48.560Z,99500.05
2023-04-09T13:55:50.692Z,99499.80
2023-04-09T14:00:53.246Z,99498.73
2023-04-09T14:05:55.241Z,99494.59
2023-04-09T14:10:57.603Z,99495.57
2023-04-09T14:16:00.494Z,99496.73
2023-04-09T14:21:03.356Z,99492.91
2023-04-09T14:26:06.603Z,99491.27
2023-04-09T14:31:08.838Z,99486.95
2023-04-09T14:36:11.530Z,99489.64
2023-04-09T14:41:14.980Z,99486.90
2023-04-09T14:46:17.232Z,99483.97
2023-04-09T14:51:19.431Z,99486.33
2023-04-09T14:56:21.266Z,99485.75
2023-04-09T15:01:24.474Z,99481.98
2023-04-09T15:06:28.014Z,99484.73
2023-04-09T15:11:30.262Z,99482.09
2023-04-09T15:16:37.520Z,99478.95
2023-04-09T15:21:39.802Z,99479.46
2023-04-09T15:26:41.828Z,99476.42
2023-04-09T15:31:44.190Z,99486.63
2023-04-09T15:36:46.350Z,99486.27
2023-04-09T15:41:48.443Z,99487.33
2023-04-09T15:46:51.067Z,99485.48
2023-04-09T15:51:53.784Z,99482.08
2023-04-09T15:56:55.808Z,99484.98
2023-04-09T16:01:58.770Z,99486.05
2023-04-09T16:07:02.480Z,99487.46
2023-04-09T16:12:05.098Z,99486.65
2023-04-09T16:17:07.258Z,99488.96
2023-04-09T16:22:10.134Z,99496.34
2023-04-09T16:27:13.955Z,99496.35
2023-04-09T16:32:16.732Z,99498.78
2023-04-09T16:37:20.441Z,99501.33
2023-04-09T16:42:22.862Z,99500.94
2023-04-09T16:47:25.734Z,99502.48
2023-04-09T16:52:30.921Z,99502.34
2023-04-09T16:57:32.903Z,99505.32
2023-04-09T17:02:37.237Z,99510.33
2023-04-09T17:07:39.388Z,99518.21
2023-04-09T17:12:42.302Z,99516.73
2023-04-09T17:17:45.740Z,99526.34
2023-04-09T17:22:48.432Z,99529.98
2023-04-09T17:27:50.280Z,99534.42
2023-04-09T17:32:52.403Z,99545.97
2023-04-09T17:37:55.380Z,99552.41
2023-04-09T17:42:58.981Z,99562.69
2023-04-09T17:48:00.796Z,99566.89
2023-04-09T17:53:02.956Z,99574.98
2023-04-09T17:58:04.953Z,99581.55
2023-04-09T18:03:07.254Z,99586.85
2023-04-09T18:08:09.381Z,99587.99
2023-04-09T18:13:11.497Z,99593.48
2023-04-09T18:18:13.852Z,99590.84
2023-04-09T18:23:16.003Z,99596.92
2023-04-09T18:28:18.296Z,99604.48
2023-04-09T18:33:20.921Z,99608.06
2023-04-09T18:38:23.145Z,99612.58
2023-04-09T18:43:26.181Z,99619.63
2023-04-09T18:48:28.101Z,99621.94
2023-04-09T18:53:31.524Z,99627.16
2023-04-09T18:58:34.000Z,99625.68
2023-04-09T19:03:36.851Z,99624.26
2023-04-09T19:08:39.244Z,99630.50
2023-04-09T19:13:41.355Z,99624.45
2023-04-09T19:18:43.684Z,99626.98
2023-04-09T19:23:48.815Z,99622.52
2023-04-09T19:28:50.994Z,99618.66
2023-04-09T19:33:53.190Z,99619.44
2023-04-09T19:38:56.102Z,99621.50
2023-04-09T19:43:58.867Z,99624.13
2023-04-09T19:49:01.068Z,99626.73
2023-04-09T19:54:03.661Z,99627.91
2023-04-09T19:59:05.865Z,99631.90
2023-04-09T20:04:09.532Z,99635.07
2023-04-09T20:09:14.367Z,99633.05
2023-04-09T20:14:16.456Z,99635.84
2023-04-09T20:19:19.950Z,99632.73
2023-04-09T20:24:25.264Z,99631.72
2023-04-09T20:29:27.199Z,99635.38
2023-04-09T20:34:29.329Z,99639.33
2023-04-09T20:39:32.070Z,99640.14
2023-04-09T20:44:34.105Z,99640.99
2023-04-09T20:49:36.251Z,99641.16
2023-04-09T20:54:39.343Z,99644.53
2023-04-09T20:59:41.308Z,99647.46
2023-04-09T21:04:43.567Z,99644.45
2023-04-09T21:09:47.301Z,99645.20
2023-04-09T21:14:54.456Z,99647.00
2023-04-09T21:19:56.764Z,99651.31
2023-04-09T21:24:58.808Z,99651.67
2023-04-09T21:30:00.792Z,99652.48
2023-04-09T21:35:03.271Z,99651.86
2023-04-09T21:40:06.506Z,99652.22
2023-04-09T21:45:10.452Z,99653.94
2023-04-09T21:50:13.851Z,99656.15
2023-04-09T21:55:22.047Z,99654.99
2023-04-09T22:00:24.181Z,99657.20
2023-04-09T22:05:26.468Z,99654.93
2023-04-09T22:10:28.437Z,99657.23
2023-04-09T22:15:30.479Z,99657.45
2023-04-09T22:20:32.486Z,99661.38
2023-04-09T22:25:35.409Z,99656.71
2023-04-09T22:30:37.287Z,99657.04
2023-04-09T22:35:39.369Z,99651.17
2023-04-09T22:40:41.988Z,99649.83
2023-04-09T22:45:52.879Z,99653.09
2023-04-09T22:50:55.009Z,99650.33
2023-04-09T22:55:58.982Z,99656.80
2023-04-09T23:01:02.079Z,99655.95
2023-04-09T23:06:04.465Z,99657.56
2023-04-09T23:11:07.298Z,99655.02
2023-04-09T23:16:10.539Z,99650.27
2023-04-09T23:21:13.046Z,99640.87
2023-04-09T23:26:15.111Z,99641.86
2023-04-09T23:31:17.028Z,99650.38
2023-04-09T23:36:19.623Z,99646.04
2023-04-09T23:41:23.140Z,99642.39
2023-04-09T23:46:26.586Z,99632.77
2023-04-09T23:51:29.865Z,99633.43
2023-04-09T23:56:31.823Z,99635.48
